createdAt,value
2022-12-23T19:40:44.818Z,99965.19
2022-12-23T19:43:48.899Z,99970.66
2022-12-23T19:46:52.813Z,99970.63
2022-12-23T19:49:57.388Z,99964.78
2022-12-23T19:53:01.692Z,99969.59
2022-12-23T19:56:09.541Z,99970.25
2022-12-23T19:59:13.425Z,99970.44
2022-12-23T20:02:18.164Z,99966.03
2022-12-23T20:05:22.563Z,99966.88
2022-12-23T20:08:26.430Z,99965.38
2022-12-23T20:11:34.761Z,99971.06
2022-12-23T20:14:38.730Z,99963.09
2022-12-23T20:17:42.529Z,99966.84
2022-12-23T20:20:46.481Z,99965.19
2022-12-23T20:23:50.960Z,99972.97
2022-12-23T20:26:56.301Z,99969.38
2022-12-23T20:30:00.217Z,99982.00
2022-12-23T20:33:04.079Z,99980.75
2022-12-23T20:36:08.983Z,99977.16
2022-12-23T20:39:15.034Z,99976.53
2022-12-23T20:42:20.313Z,99980.31
2022-12-23T20:45:24.447Z,99979.47
2022-12-23T20:48:33.800Z,99974.41
2022-12-23T20:51:38.668Z,99979.88
2022-12-23T20:54:42.631Z,99982.81
2022-12-23T20:57:47.867Z,99991.63
2022-12-23T21:00:52.190Z,99987.03
2022-12-23T21:03:57.179Z,99983.88
2022-12-23T21:07:01.036Z,99982.81
2022-12-23T21:10:05.669Z,99980.06
2022-12-23T21:13:10.895Z,99984.72
2022-12-23T21:16:15.099Z,99987.03
2022-12-23T21:19:21.089Z,99992.06
2022-12-23T21:22:24.959Z,99976.94
2022-12-23T21:25:28.882Z,99989.56
2022-12-23T21:28:34.250Z,99991.22
2022-12-23T21:31:40.002Z,99992.47
2022-12-23T21:34:44.041Z,99984.50
2022-12-23T21:37:47.849Z,99994.78
2022-12-23T21:40:52.048Z,99997.53
2022-12-23T21:43:58.525Z,99989.97
2022-12-23T21:47:02.917Z,99998.59
2022-12-23T21:50:08.135Z,99989.13
2022-12-23T21:53:12.524Z,99997.53
2022-12-23T21:56:19.258Z,100002.53
2022-12-23T21:59:27.182Z,100003.63
2022-12-23T22:02:35.239Z,100005.06
2022-12-23T22:05:39.138Z,100006.78
2022-12-23T22:08:43.362Z,100010.13
2022-12-23T22:11:48.286Z,100008.44
2022-12-23T22:14:53.526Z,100014.09
2022-12-23T22:17:57.354Z,100007.63
2022-12-23T22:21:05.612Z,100006.53
2022-12-23T22:24:10.137Z,100017.47
2022-12-23T22:27:13.947Z,100012.84
2022-12-23T22:30:19.329Z,100016.84
2022-12-23T22:33:23.163Z,100013.91
2022-12-23T22:36:27.422Z,100014.72
2022-12-23T22:39:31.340Z,100010.31
2022-12-23T22:42:35.353Z,100019.78
2022-12-23T22:45:40.623Z,100022.94
2022-12-23T22:48:45.900Z,100026.50
2022-12-23T22:51:49.792Z,100027.72
2022-12-23T22:54:53.602Z,100025.25
2022-12-23T22:57:57.526Z,100017.66
2022-12-23T23:01:03.638Z,100021.47
2022-12-23T23:04:08.062Z,100018.09
2022-12-23T23:07:11.996Z,100019.97
2022-12-23T23:10:16.045Z,100019.56
2022-12-23T23:13:20.382Z,100015.38
2022-12-23T23:16:27.281Z,100024.84
2022-12-23T23:19:31.271Z,100024.81
2022-12-23T23:22:35.229Z,100021.69
2022-12-23T23:25:39.390Z,100022.72
2022-12-23T23:28:44.083Z,100025.66
2022-12-23T23:31:49.399Z,100033.22
2022-12-23T23:34:53.246Z,100029.84
2022-12-23T23:37:57.150Z,100028.16
2022-12-23T23:41:01.154Z,100026.91
2022-12-23T23:44:05.177Z,100025.88
2022-12-23T23:47:10.468Z,100023.97
2022-12-23T23:50:14.452Z,100028.59
